Time;durP1;ratioP1;P1;durP2;ratioP2;P2;SDS_P1;SDS_P2;PMS_P1;PMS_P2;Temp;Humidity;BMP_temperature;BMP_pressure;BME280_temperature;BME280_humidity;BME280_pressure;Samples;Min_cycle;Max_cycle;Signal;HPM_P1;HPM_P2
2023/06/03 00:00:14;;;;;;;7.85;4.72;;;;;;;12.25;85.32;102070.75;1048742;28;20296;-44
2023/06/03 00:00:49;;;;;;;5.68;4.68;;;;;;;12.26;84.89;102072.38;1048689;28;21076;-46
2023/06/03 00:01:21;;;;;;;6.97;4.65;;;;;;;12.26;84.85;102066.22;1048404;28;20290;-47
2023/06/03 00:01:53;;;;;;;11.05;4.25;;;;;;;12.30;84.74;102067.47;1048413;28;20385;-45
2023/06/03 00:02:25;;;;;;;8.35;5.70;;;;;;;12.28;84.63;102069.53;1048260;28;20817;-45
2023/06/03 00:02:57;;;;;;;4.50;4.03;;;;;;;12.27;84.80;102070.53;1047249;28;20295;-48
2023/06/03 00:03:32;;;;;;;7.55;3.97;;;;;;;12.25;84.94;102070.75;1044965;28;20772;-45
2023/06/03 00:04:04;;;;;;;6.35;3.60;;;;;;;12.30;84.73;102062.94;1044465;28;20649;-46
2023/06/03 00:04:41;;;;;;;6.97;4.22;;;;;;;12.30;84.04;102070.97;1044023;28;20303;-47
2023/06/03 00:05:17;;;;;;;7.00;3.67;;;;;;;12.24;84.63;102073.63;1044043;28;20303;-49
2023/06/03 00:05:49;;;;;;;6.30;3.40;;;;;;;12.23;84.84;102067.44;1044237;28;20440;-44
2023/06/03 00:06:21;;;;;;;7.93;3.75;;;;;;;12.20;84.83;102077.69;1042794;28;20859;-45
2023/06/03 00:06:52;;;;;;;4.63;3.08;;;;;;;12.26;84.24;102071.56;1044200;28;20295;-45
2023/06/03 00:07:24;;;;;;;6.38;3.90;;;;;;;12.27;84.03;102067.88;1044195;28;20303;-45
2023/06/03 00:07:56;;;;;;;12.70;3.75;;;;;;;12.26;83.94;102072.38;1041560;28;20860;-47
2023/06/03 00:08:27;;;;;;;7.78;3.85;;;;;;;12.32;83.97;102074.25;1044245;28;20326;-46
2023/06/03 00:08:59;;;;;;;6.85;3.95;;;;;;;12.36;83.52;102077.41;1045171;28;20303;-52
2023/06/03 00:09:30;;;;;;;4.97;3.90;;;;;;;12.22;83.77;102073.81;1044620;28;20299;-50
2023/06/03 00:10:05;;;;;;;5.68;3.60;;;;;;;12.31;84.04;102074.47;1045234;28;20306;-49
2023/06/03 00:10:36;;;;;;;6.45;3.75;;;;;;;12.31;83.65;102074.47;1044034;28;20302;-46
2023/06/03 00:11:16;;;;;;;5.90;4.25;;;;;;;12.29;83.82;102074.66;1044997;28;20804;-50
2023/06/03 00:11:47;;;;;;;6.05;4.28;;;;;;;12.26;83.67;102077.72;1044549;28;20804;-55
2023/06/03 00:12:20;;;;;;;5.03;3.63;;;;;;;12.25;83.51;102069.91;1046315;28;20796;-46
2023/06/03 00:12:51;;;;;;;6.07;3.33;;;;;;;12.28;83.55;102075.69;1049119;28;20861;-54
2023/06/03 00:13:29;;;;;;;6.82;4.28;;;;;;;12.27;83.22;102070.53;1047036;28;20319;-48
2023/06/03 00:14:01;;;;;;;6.47;3.28;;;;;;;12.32;82.51;102076.94;1044999;28;20325;-54
2023/06/03 00:14:32;;;;;;;7.03;4.07;;;;;;;12.36;83.07;102070.19;1044207;28;20794;-51
2023/06/03 00:15:04;;;;;;;6.82;3.75;;;;;;;12.33;83.19;102075.13;1044178;28;20984;-52
2023/06/03 00:15:37;;;;;;;5.35;3.45;;;;;;;12.29;82.88;102071.16;1044256;28;20299;-53
2023/06/03 00:16:09;;;;;;;4.60;3.40;;;;;;;12.35;82.57;102073.06;1044056;28;20346;-53
2023/06/03 00:16:45;;;;;;;10.55;3.63;;;;;;;12.26;82.93;102082.25;1044931;28;20299;-46
2023/06/03 00:17:21;;;;;;;4.65;3.47;;;;;;;12.23;83.04;102078.13;1044815;28;20302;-46
2023/06/03 00:17:53;;;;;;;4.43;3.42;;;;;;;12.27;83.25;102081.22;1044584;28;20303;-44
2023/06/03 00:18:26;;;;;;;5.28;3.55;;;;;;;12.29;82.99;102073.84;1044421;28;20918;-44
2023/06/03 00:18:58;;;;;;;5.45;3.85;;;;;;;12.28;82.62;102077.53;1043859;28;20307;-48
2023/06/03 00:19:30;;;;;;;5.45;3.85;;;;;;;12.31;82.72;102079.81;1045413;28;20300;-47
2023/06/03 00:20:06;;;;;;;6.03;3.35;;;;;;;12.28;82.70;102074.88;1048985;28;20767;-46
2023/06/03 00:20:39;;;;;;;7.32;3.45;;;;;;;12.25;82.69;102073.41;1048260;28;20302;-49
2023/06/03 00:21:10;;;;;;;7.03;3.03;;;;;;;12.28;82.42;102069.53;1048344;28;20287;-48
2023/06/03 00:21:45;;;;;;;5.25;4.20;;;;;;;12.32;82.27;102065.44;1045749;28;20845;-49
2023/06/03 00:22:17;;;;;;;9.20;4.10;;;;;;;12.31;82.42;102074.47;1044059;28;20398;-46
2023/06/03 00:22:49;;;;;;;4.90;3.17;;;;;;;12.28;82.17;102069.53;1040489;28;20357;-49
2023/06/03 00:23:21;;;;;;;5.75;3.22;;;;;;;12.29;82.07;102076.50;1040209;28;20406;-50
2023/06/03 00:23:53;;;;;;;5.15;3.30;;;;;;;12.35;81.29;102073.06;1040206;28;20295;-47
2023/06/03 00:24:24;;;;;;;7.05;3.30;;;;;;;12.29;81.64;102073.84;1040461;28;20859;-50
2023/06/03 00:24:56;;;;;;;5.07;3.50;;;;;;;12.32;81.63;102078.78;1040405;28;20288;-46
2023/06/03 00:25:28;;;;;;;7.75;3.50;;;;;;;12.32;81.63;102076.13;1043734;28;20334;-54
2023/06/03 00:25:59;;;;;;;3.75;3.10;;;;;;;12.29;82.04;102076.50;1044711;28;20314;-47
2023/06/03 00:26:31;;;;;;;3.35;3.05;;;;;;;12.28;81.54;102080.22;1044209;28;20306;-49
2023/06/03 00:27:04;;;;;;;6.45;3.47;;;;;;;12.27;81.50;102081.22;1044056;28;20737;-50
2023/06/03 00:27:36;;;;;;;4.55;4.07;;;;;;;12.25;81.84;102070.75;1041992;28;20304;-53
2023/06/03 00:28:08;;;;;;;7.10;3.08;;;;;;;12.28;80.85;102080.22;1040370;28;20724;-50
2023/06/03 00:28:39;;;;;;;5.15;2.70;;;;;;;12.30;80.84;102078.97;1040104;28;20380;-45
2023/06/03 00:29:11;;;;;;;7.75;3.30;;;;;;;12.29;81.15;102077.34;1033426;28;20294;-45
2023/06/03 00:29:43;;;;;;;4.93;3.13;;;;;;;12.29;80.98;102081.84;1043652;28;20385;-47
2023/06/03 00:30:15;;;;;;;6.40;3.45;;;;;;;12.23;81.27;102082.66;1044149;28;20369;-45
2023/06/03 00:30:54;;;;;;;4.53;2.78;;;;;;;12.22;81.28;102081.00;1047142;28;20308;-50
2023/06/03 00:31:26;;;;;;;3.00;2.70;;;;;;;12.22;81.48;102081.00;1050789;28;20294;-47
2023/06/03 00:31:57;;;;;;;7.32;3.03;;;;;;;12.16;81.28;102082.63;1043152;28;20299;-47
2023/06/03 00:32:29;;;;;;;8.07;3.15;;;;;;;12.19;81.64;102078.72;1044537;28;20295;-46
2023/06/03 00:33:02;;;;;;;5.85;2.78;;;;;;;12.18;81.64;102091.25;1046607;28;20324;-54
2023/06/03 00:33:34;;;;;;;3.97;2.92;;;;;;;12.18;81.51;102079.75;1044739;28;20387;-54
2023/06/03 00:34:06;;;;;;;2.92;2.65;;;;;;;12.15;81.28;102086.31;1044359;28;20303;-55
2023/06/03 00:34:38;;;;;;;6.13;3.20;;;;;;;12.12;81.33;102080.53;1044511;28;20303;-52
2023/06/03 00:35:09;;;;;;;4.07;2.72;;;;;;;12.13;81.34;102082.19;1044009;28;20303;-53
2023/06/03 00:35:41;;;;;;;5.78;3.17;;;;;;;12.19;81.02;102078.72;1044126;28;20295;-52
2023/06/03 00:36:13;;;;;;;6.90;3.20;;;;;;;12.18;80.70;102079.75;1045409;28;20292;-45
2023/06/03 00:36:45;;;;;;;6.10;3.55;;;;;;;12.19;80.71;102082.22;1043826;28;20310;-48
2023/06/03 00:37:16;;;;;;;7.20;3.67;;;;;;;12.17;80.75;102078.09;1043258;28;20350;-46
2023/06/03 00:37:48;;;;;;;4.35;3.03;;;;;;;12.12;80.58;102070.69;1043923;28;20295;-46
2023/06/03 00:38:19;;;;;;;4.15;2.70;;;;;;;12.13;80.68;102071.50;1044005;28;20307;-45
2023/06/03 00:38:51;;;;;;;4.18;2.53;;;;;;;12.13;80.65;102066.97;1043789;28;20299;-44
2023/06/03 00:39:23;;;;;;;7.30;2.80;;;;;;;12.11;80.91;102073.53;1044207;28;20299;-47
2023/06/03 00:39:55;;;;;;;6.60;2.83;;;;;;;12.11;80.66;102073.53;1043412;28;20326;-47
2023/06/03 00:40:26;;;;;;;5.45;2.90;;;;;;;12.08;81.01;102066.75;1042928;28;20303;-45
2023/06/03 00:41:00;;;;;;;3.58;3.10;;;;;;;12.09;80.71;102070.25;1044287;28;20297;-47
2023/06/03 00:41:31;;;;;;;4.82;2.70;;;;;;;12.11;80.15;102068.22;1044169;28;20291;-47
2023/06/03 00:42:03;;;;;;;4.25;3.35;;;;;;;12.11;80.04;102069.03;1043918;28;20291;-44
2023/06/03 00:42:35;;;;;;;7.05;2.78;;;;;;;12.11;80.33;102066.34;1044418;28;20295;-46
2023/06/03 00:43:07;;;;;;;5.80;3.13;;;;;;;12.12;80.31;102060.00;1040905;28;20375;-53
2023/06/03 00:43:38;;;;;;;7.15;2.47;;;;;;;12.12;80.01;102067.19;1047267;28;20341;-54
2023/06/03 00:44:12;;;;;;;3.05;2.13;;;;;;;12.14;79.92;102062.47;1043357;28;20314;-45
2023/06/03 00:44:44;;;;;;;7.32;2.60;;;;;;;12.13;79.84;102066.16;1044012;28;20295;-44
2023/06/03 00:45:16;;;;;;;3.58;2.50;;;;;;;12.03;80.35;102064.63;1044031;28;20378;-50
2023/06/03 00:45:49;;;;;;;5.97;2.95;;;;;;;12.07;80.12;102073.13;1044591;28;20314;-52
2023/06/03 00:46:21;;;;;;;6.25;3.05;;;;;;;12.09;79.66;102071.06;1040094;28;20300;-55
2023/06/03 00:46:53;;;;;;;6.90;2.92;;;;;;;12.04;79.89;102060.94;1037815;28;20308;-50
2023/06/03 00:47:25;;;;;;;9.55;2.60;;;;;;;12.09;79.54;102064.91;1038504;28;20348;-49
2023/06/03 00:47:57;;;;;;;5.68;2.60;;;;;;;12.01;79.76;102065.88;1040924;28;20403;-54
2023/06/03 00:48:28;;;;;;;5.57;2.90;;;;;;;12.06;79.35;102072.28;1045003;28;20307;-53
2023/06/03 00:49:00;;;;;;;10.23;2.60;;;;;;;12.10;79.32;102066.56;1041200;28;20402;-50
2023/06/03 00:49:34;;;;;;;4.25;2.58;;;;;;;12.04;79.15;102068.97;1044577;28;20338;-44
2023/06/03 00:50:07;;;;;;;2.65;2.38;;;;;;;12.14;78.71;102065.97;1040664;28;20382;-47
2023/06/03 00:50:39;;;;;;;6.28;2.33;;;;;;;12.10;79.05;102067.38;1041037;28;20292;-53
2023/06/03 00:51:11;;;;;;;3.80;2.55;;;;;;;12.10;78.57;102066.56;1039309;28;20351;-54
2023/06/03 00:51:43;;;;;;;2.83;2.15;;;;;;;12.11;79.03;102063.69;1036335;28;20446;-51
2023/06/03 00:52:15;;;;;;;4.40;2.63;;;;;;;12.10;78.94;102067.38;1043027;28;20401;-54
2023/06/03 00:52:47;;;;;;;5.13;2.63;;;;;;;12.11;78.74;102063.69;1039668;28;20358;-54
2023/06/03 00:53:19;;;;;;;5.63;2.25;;;;;;;12.06;78.92;102066.13;1036839;28;20678;-50
2023/06/03 00:53:51;;;;;;;3.42;2.88;;;;;;;12.09;78.85;102064.91;1040359;28;20302;-54
2023/06/03 00:54:23;;;;;;;4.10;2.13;;;;;;;12.03;78.90;102056.63;1036480;28;20305;-45
2023/06/03 00:54:57;;;;;;;5.00;2.63;;;;;;;12.01;78.70;102058.69;1041391;28;20308;-44
2023/06/03 00:55:29;;;;;;;3.05;2.13;;;;;;;12.04;78.46;102068.97;1043885;28;20350;-50
2023/06/03 00:56:01;;;;;;;8.18;2.20;;;;;;;12.10;78.43;102071.91;1043748;28;20302;-54
2023/06/03 00:56:41;;;;;;;2.95;2.15;;;;;;;12.05;78.31;102057.28;1044269;28;20438;-54
2023/06/03 00:57:13;;;;;;;2.63;2.28;;;;;;;12.06;78.59;102068.78;1044274;28;20298;-49
2023/06/03 00:57:46;;;;;;;6.38;2.80;;;;;;;11.93;78.68;102060.69;1044406;28;20048;-46
2023/06/03 00:58:17;;;;;;;2.50;1.90;;;;;;;11.95;78.87;102061.31;1045499;28;20330;-54
2023/06/03 00:58:49;;;;;;;2.88;2.13;;;;;;;11.96;78.80;102061.13;1044927;28;20311;-54
2023/06/03 00:59:21;;;;;;;4.68;2.67;;;;;;;11.95;78.35;102069.31;1044871;28;20294;-54
2023/06/03 00:59:53;;;;;;;5.95;2.30;;;;;;;11.91;78.67;102068.06;1040678;28;20312;-54
2023/06/03 01:00:25;;;;;;;4.03;1.50;;;;;;;11.89;78.89;102060.25;1043232;28;20311;-55
2023/06/03 01:00:57;;;;;;;4.22;2.35;;;;;;;11.91;78.75;102068.88;1049106;28;20382;-47
2023/06/03 01:01:30;;;;;;;6.38;2.35;;;;;;;11.91;78.87;102063.56;1044790;28;20372;-48
2023/06/03 01:02:02;;;;;;;3.80;2.30;;;;;;;11.83;79.09;102061.03;1047564;28;20295;-48
2023/06/03 01:02:36;;;;;;;3.30;2.13;;;;;;;11.85;78.92;102066.19;1043862;28;20441;-44
2023/06/03 01:03:13;;;;;;;4.85;2.47;;;;;;;11.81;79.09;102068.41;1036146;28;20375;-47
2023/06/03 01:03:47;;;;;;;4.28;2.80;;;;;;;11.77;79.15;102073.25;1035347;28;20303;-48
2023/06/03 01:04:25;;;;;;;6.10;2.28;;;;;;;11.80;78.88;102066.75;1035723;28;20328;-45
2023/06/03 01:04:57;;;;;;;4.03;2.25;;;;;;;11.82;78.60;102070.06;1044107;28;20311;-45
2023/06/03 01:05:28;;;;;;;3.28;2.08;;;;;;;11.83;78.50;102061.03;1045472;28;20297;-50
2023/06/03 01:06:14;;;;;;;3.10;2.20;;;;;;;11.86;78.52;102065.16;1042415;28;20304;-47
2023/06/03 01:07:00;;;;;;;4.20;2.17;;;;;;;11.78;78.18;102063.47;1047832;28;20278;-47
2023/06/03 01:08:04;;;;;;;6.00;4.85;;;;;;;11.82;78.45;102064.72;1044928;28;20704;-44
2023/06/03 01:08:51;;;;;;;2.70;2.30;;;;;;;11.77;78.91;102051.91;1040231;28;20845;-47
2023/06/03 01:09:28;;;;;;;6.97;2.95;;;;;;;11.74;78.75;102070.97;1035475;28;20316;-49
2023/06/03 01:10:23;;;;;;;3.45;2.08;;;;;;;11.74;78.53;102068.31;1035800;28;20297;-49
2023/06/03 01:11:20;;;;;;;3.30;2.10;;;;;;;11.75;78.59;102063.78;1048553;28;20909;-49
2023/06/03 01:12:24;;;;;;;6.93;2.13;;;;;;;11.75;78.44;102063.78;1048756;28;20306;-53
2023/06/03 01:13:06;;;;;;;2.67;2.22;;;;;;;11.75;78.44;102063.78;1035709;28;20307;-49
2023/06/03 01:13:45;;;;;;;2.47;1.73;;;;;;;11.77;78.12;102057.25;1032147;28;20376;-54
2023/06/03 01:14:38;;;;;;;4.05;1.88;;;;;;;11.73;78.68;102065.84;1027632;28;20818;-46
2023/06/03 01:15:18;;;;;;;2.13;1.75;;;;;;;11.76;77.63;102060.09;1032236;28;20901;-44
2023/06/03 01:15:53;;;;;;;10.48;2.20;;;;;;;11.76;78.31;102065.44;1041137;28;20345;-47
2023/06/03 01:16:26;;;;;;;2.42;1.77;;;;;;;11.73;78.25;102061.31;1039649;28;20080;-48
2023/06/03 01:16:59;;;;;;;3.67;2.50;;;;;;;11.66;78.68;102062.31;1034061;28;20460;-46
2023/06/03 01:17:35;;;;;;;2.80;2.35;;;;;;;11.68;78.40;102068.25;1040452;28;20386;-51
2023/06/03 01:18:07;;;;;;;2.83;2.15;;;;;;;11.67;78.45;102062.09;1041313;28;20292;-54
2023/06/03 01:18:46;;;;;;;3.63;2.83;;;;;;;11.57;78.88;102055.47;1041858;28;20394;-52
2023/06/03 01:19:38;;;;;;;3.65;2.28;;;;;;;11.55;78.88;102062.84;1043849;28;20295;-55
2023/06/03 01:20:10;;;;;;;7.35;2.20;;;;;;;11.56;78.65;102064.47;1036743;28;20328;-45
2023/06/03 01:20:43;;;;;;;1.95;1.55;;;;;;;11.60;78.61;102065.75;1035489;28;20593;-47
2023/06/03 01:21:16;;;;;;;5.60;1.80;;;;;;;11.59;78.36;102064.09;1039056;28;20350;-48
2023/06/03 01:21:53;;;;;;;3.38;1.95;;;;;;;11.58;78.44;102063.28;1036893;28;20314;-49
2023/06/03 01:22:28;;;;;;;2.40;1.70;;;;;;;11.58;78.51;102063.28;1036290;28;20308;-51
2023/06/03 01:23:15;;;;;;;7.10;2.97;;;;;;;11.60;78.52;102060.41;1036132;28;20311;-54
2023/06/03 01:23:48;;;;;;;2.05;1.75;;;;;;;11.57;78.56;102066.13;1043075;28;20696;-54
2023/06/03 01:24:20;;;;;;;3.42;1.83;;;;;;;11.53;78.36;102062.19;1044448;28;20303;-53
2023/06/03 01:25:06;;;;;;;12.65;2.60;;;;;;;11.58;78.41;102065.13;1044570;28;20638;-48
2023/06/03 01:25:41;;;;;;;3.42;2.45;;;;;;;11.60;78.19;102065.75;1041619;28;20296;-49
2023/06/03 01:26:13;;;;;;;2.92;1.88;;;;;;;11.59;78.17;102066.75;1043655;28;20295;-45
2023/06/03 01:26:45;;;;;;;3.33;1.92;;;;;;;11.57;78.14;102064.28;1039135;28;20311;-47
2023/06/03 01:27:18;;;;;;;6.10;2.42;;;;;;;11.57;78.30;102066.13;1036249;28;20312;-47
2023/06/03 01:27:50;;;;;;;2.05;1.75;;;;;;;11.56;78.23;102069.81;1039988;28;20423;-49
2023/06/03 01:28:23;;;;;;;3.15;2.00;;;;;;;11.49;78.67;102066.25;1042396;28;20844;-51
2023/06/03 01:28:55;;;;;;;3.83;2.10;;;;;;;11.43;79.25;102068.66;1036890;28;20305;-54
2023/06/03 01:29:26;;;;;;;10.05;2.22;;;;;;;11.45;78.89;102068.47;1038425;28;20295;-54
2023/06/03 01:29:58;;;;;;;3.78;2.05;;;;;;;11.49;78.59;102066.25;1032248;28;20332;-54
2023/06/03 01:30:32;;;;;;;2.50;1.90;;;;;;;11.46;78.46;102070.94;1035699;28;20781;-55
2023/06/03 01:31:05;;;;;;;6.20;2.17;;;;;;;11.49;78.62;102074.25;1039641;28;20323;-53
2023/06/03 01:31:38;;;;;;;3.28;2.13;;;;;;;11.48;78.34;102067.25;1031422;28;20305;-55
2023/06/03 01:32:14;;;;;;;2.35;1.67;;;;;;;11.49;78.53;102071.59;1024333;28;20322;-54
2023/06/03 01:32:47;;;;;;;4.75;2.22;;;;;;;11.47;78.16;102066.44;1030152;28;20321;-54
2023/06/03 01:33:20;;;;;;;5.10;2.80;;;;;;;11.42;78.47;102067.03;1037342;28;20292;-53
2023/06/03 01:33:52;;;;;;;5.90;2.00;;;;;;;11.43;78.64;102076.69;1038262;28;20352;-54
2023/06/03 01:34:24;;;;;;;7.47;2.20;;;;;;;11.36;79.68;102075.78;1041876;28;20307;-54
2023/06/03 01:34:56;;;;;;;8.73;2.65;;;;;;;11.40;79.31;102077.06;1035247;28;20311;-54
2023/06/03 01:35:28;;;;;;;3.25;1.98;;;;;;;11.42;78.43;102063.53;1035817;28;20309;-53
2023/06/03 01:36:03;;;;;;;2.58;2.05;;;;;;;11.42;78.77;102069.69;1036725;28;20311;-54
2023/06/03 01:36:35;;;;;;;4.00;1.80;;;;;;;11.42;78.44;102074.19;1037147;28;20375;-47
2023/06/03 01:37:08;;;;;;;4.60;1.98;;;;;;;11.40;78.71;102060.22;1035411;28;20309;-53
2023/06/03 01:37:44;;;;;;;4.25;1.95;;;;;;;11.21;78.58;102072.34;1037800;28;20316;-52
2023/06/03 01:38:16;;;;;;;5.18;1.92;;;;;;;11.14;79.84;102076.81;1039863;28;20820;-54
2023/06/03 01:38:48;;;;;;;3.97;2.72;;;;;;;11.07;80.52;102075.91;1035175;28;20308;-47
2023/06/03 01:39:20;;;;;;;1.73;1.63;;;;;;;11.06;80.53;102074.25;1036928;28;20633;-47
2023/06/03 01:39:53;;;;;;;4.38;1.90;;;;;;;11.13;80.83;102081.31;1028547;28;20341;-54
2023/06/03 01:40:27;;;;;;;4.25;1.58;;;;;;;11.06;81.56;102077.75;1028337;28;20294;-48
2023/06/03 01:41:00;;;;;;;4.10;2.25;;;;;;;11.03;80.78;102078.13;1032209;28;20671;-48
2023/06/03 01:41:34;;;;;;;4.95;2.20;;;;;;;11.01;81.07;102074.00;1037183;28;20296;-49
2023/06/03 01:42:10;;;;;;;4.18;2.30;;;;;;;10.93;81.11;102079.44;1040844;28;20300;-46
2023/06/03 01:42:43;;;;;;;2.38;2.13;;;;;;;10.81;82.16;102077.28;1041916;28;20300;-48
2023/06/03 01:43:15;;;;;;;2.15;1.80;;;;;;;10.86;82.15;102078.53;1044134;28;20302;-53
2023/06/03 01:43:47;;;;;;;3.05;2.08;;;;;;;10.77;82.60;102081.31;1037951;28;20308;-53
2023/06/03 01:44:19;;;;;;;4.18;2.72;;;;;;;10.73;83.82;102084.56;1035747;28;20659;-54
2023/06/03 01:44:51;;;;;;;7.10;2.92;;;;;;;10.69;83.48;102081.44;1031140;28;20293;-53
2023/06/03 01:45:23;;;;;;;6.57;2.20;;;;;;;10.73;83.62;102085.38;1034543;28;20443;-46
2023/06/03 01:45:55;;;;;;;2.78;2.05;;;;;;;10.79;83.68;102084.63;1041136;28;20288;-54
2023/06/03 01:46:26;;;;;;;4.13;2.15;;;;;;;10.78;83.08;102087.47;1038865;28;20349;-55
2023/06/03 01:46:59;;;;;;;4.70;2.42;;;;;;;10.72;83.17;102078.41;1043156;28;20303;-54
2023/06/03 01:47:34;;;;;;;4.03;2.38;;;;;;;10.72;83.92;102078.41;1040029;28;20310;-45
2023/06/03 01:48:06;;;;;;;5.82;2.55;;;;;;;10.72;83.86;102086.41;1040837;28;20383;-46
2023/06/03 01:48:39;;;;;;;8.32;2.35;;;;;;;10.74;83.80;102081.69;1043552;28;20311;-45
2023/06/03 01:49:11;;;;;;;7.13;2.03;;;;;;;10.72;83.78;102088.22;1043739;28;20681;-46
2023/06/03 01:49:44;;;;;;;5.25;2.30;;;;;;;10.62;83.53;102087.69;1044462;28;20399;-48
2023/06/03 01:50:17;;;;;;;5.45;2.55;;;;;;;10.53;83.72;102089.63;1039750;28;20290;-46
2023/06/03 01:50:49;;;;;;;4.65;2.10;;;;;;;10.44;84.92;102091.56;1035337;28;20864;-48
2023/06/03 01:51:26;;;;;;;6.32;2.05;;;;;;;10.46;85.24;102088.72;1032927;28;20313;-49
2023/06/03 01:51:58;;;;;;;3.53;2.17;;;;;;;10.45;85.71;102089.72;1033119;28;20807;-54
2023/06/03 01:52:31;;;;;;;5.20;2.65;;;;;;;10.47;85.04;102095.69;1036774;28;20344;-53
2023/06/03 01:53:03;;;;;;;2.97;2.42;;;;;;;10.46;85.04;102088.72;1032856;28;20336;-54
2023/06/03 01:53:34;;;;;;;4.50;2.33;;;;;;;10.44;85.18;102088.91;1038819;28;20296;-54
2023/06/03 01:54:06;;;;;;;3.92;2.42;;;;;;;10.44;86.01;102080.09;1044016;28;20448;-55
2023/06/03 01:54:38;;;;;;;3.10;2.10;;;;;;;10.41;85.52;102091.13;1045211;28;20331;-54
2023/06/03 01:55:10;;;;;;;2.03;1.90;;;;;;;10.40;85.58;102089.44;1049120;28;20317;-52
2023/06/03 01:55:42;;;;;;;5.07;1.83;;;;;;;10.42;85.50;102092.78;1046625;28;20295;-49
2023/06/03 01:56:15;;;;;;;4.65;1.92;;;;;;;10.38;84.83;102086.13;1043849;28;20354;-47
2023/06/03 01:56:47;;;;;;;4.82;2.60;;;;;;;10.38;85.88;102088.78;1035048;28;20407;-50
2023/06/03 01:57:19;;;;;;;5.65;2.38;;;;;;;10.36;85.89;102088.16;1031148;28;20298;-46
2023/06/03 01:57:51;;;;;;;2.55;2.10;;;;;;;10.37;85.91;102084.47;1033805;28;20308;-45
2023/06/03 01:58:23;;;;;;;4.15;2.17;;;;;;;10.37;85.59;102085.31;1035370;28;20861;-46
2023/06/03 01:58:54;;;;;;;2.88;1.50;;;;;;;10.32;86.02;102093.03;1032617;28;20395;-46
2023/06/03 01:59:27;;;;;;;4.30;2.28;;;;;;;10.32;85.49;102087.69;1032761;28;20699;-54
2023/06/03 01:59:58;;;;;;;2.67;2.20;;;;;;;10.28;85.93;102086.41;1032715;28;20301;-47
2023/06/03 02:00:30;;;;;;;2.38;1.90;;;;;;;10.27;85.95;102086.59;1031737;28;20328;-55
2023/06/03 02:01:02;;;;;;;6.40;2.40;;;;;;;10.28;86.31;102083.75;1031921;28;20888;-54
2023/06/03 02:01:36;;;;;;;5.68;2.25;;;;;;;10.28;85.86;102088.25;1036772;28;20849;-54
2023/06/03 02:02:07;;;;;;;3.08;2.13;;;;;;;10.26;85.87;102084.94;1040061;28;20453;-52
2023/06/03 02:02:39;;;;;;;4.20;2.53;;;;;;;10.23;85.78;102085.31;1041353;28;20729;-54
2023/06/03 02:03:11;;;;;;;5.43;2.90;;;;;;;10.20;85.87;102084.69;1043687;28;20299;-54
2023/06/03 02:03:43;;;;;;;9.27;3.42;;;;;;;10.23;86.21;102087.97;1043974;28;20303;-55
2023/06/03 02:04:15;;;;;;;5.82;2.72;;;;;;;10.23;86.58;102082.66;1040075;28;20362;-54
2023/06/03 02:04:46;;;;;;;9.85;2.50;;;;;;;10.21;86.34;102086.34;1039961;28;20673;-54
2023/06/03 02:05:18;;;;;;;8.55;2.40;;;;;;;10.14;86.95;102084.56;1040968;28;20292;-54
2023/06/03 02:05:49;;;;;;;11.77;2.90;;;;;;;10.14;86.81;102087.22;1039861;28;20318;-54
2023/06/03 02:06:21;;;;;;;3.50;2.50;;;;;;;10.12;86.95;102098.03;1043551;28;20767;-53
2023/06/03 02:06:55;;;;;;;12.23;3.25;;;;;;;10.14;87.27;102090.72;1046566;28;20306;-54
2023/06/03 02:07:30;;;;;;;3.92;2.20;;;;;;;10.16;87.35;102088.69;1042643;28;20307;-55
2023/06/03 02:08:01;;;;;;;9.43;2.50;;;;;;;10.17;87.21;102090.34;1043810;28;20326;-54
2023/06/03 02:08:36;;;;;;;5.18;2.20;;;;;;;10.19;86.97;102092.81;1040889;28;20304;-55
2023/06/03 02:09:10;;;;;;;9.88;2.47;;;;;;;10.11;87.09;102096.38;1043085;28;20306;-54
2023/06/03 02:09:41;;;;;;;5.88;2.50;;;;;;;10.11;86.79;102093.72;1039210;28;20319;-54
2023/06/03 02:10:13;;;;;;;2.80;2.38;;;;;;;10.13;87.67;102089.03;1043093;28;20338;-55
2023/06/03 02:10:45;;;;;;;11.10;2.50;;;;;;;10.15;87.18;102092.38;1044058;28;20735;-54
2023/06/03 02:11:17;;;;;;;3.58;1.95;;;;;;;10.15;87.23;102096.88;1048397;28;20302;-55
2023/06/03 02:11:48;;;;;;;3.08;2.45;;;;;;;10.11;87.51;102085.72;1051754;28;20350;-55
2023/06/03 02:12:20;;;;;;;4.22;2.08;;;;;;;10.09;87.27;102087.75;1045812;28;20322;-54
2023/06/03 02:12:52;;;;;;;2.78;2.35;;;;;;;10.03;87.16;102093.81;1043538;28;20309;-55
2023/06/03 02:13:23;;;;;;;3.70;2.33;;;;;;;9.91;87.25;102089.94;1043444;28;20339;-54
2023/06/03 02:13:56;;;;;;;7.75;2.13;;;;;;;9.82;87.40;102088.34;1039522;28;20308;-55
2023/06/03 02:14:29;;;;;;;2.30;2.10;;;;;;;9.91;88.11;102090.78;1035639;28;20304;-54
2023/06/03 02:15:01;;;;;;;4.10;2.83;;;;;;;9.90;87.73;102089.13;1031286;28;20301;-54
2023/06/03 02:15:33;;;;;;;4.75;2.40;;;;;;;9.83;87.49;102100.66;1037850;28;20289;-54
2023/06/03 02:16:05;;;;;;;3.42;2.28;;;;;;;9.76;87.69;102095.22;1039818;28;20791;-53
2023/06/03 02:16:38;;;;;;;4.50;2.17;;;;;;;9.66;88.23;102092.00;1042660;28;20304;-53
2023/06/03 02:17:11;;;;;;;8.90;2.75;;;;;;;9.68;89.18;102089.16;1047356;28;20421;-54
2023/06/03 02:17:43;;;;;;;3.60;2.50;;;;;;;9.62;89.34;102088.03;1040356;28;20299;-54
2023/06/03 02:18:16;;;;;;;6.50;2.78;;;;;;;9.42;89.45;102090.34;1035433;28;20386;-55
2023/06/03 02:18:48;;;;;;;4.68;2.58;;;;;;;9.50;89.61;102090.28;1036043;28;20841;-54
2023/06/03 02:19:21;;;;;;;2.45;2.22;;;;;;;9.50;89.22;102087.63;1037275;28;20321;-50
2023/06/03 02:19:54;;;;;;;3.78;2.25;;;;;;;9.47;90.03;102092.47;1041203;28;20387;-48
2023/06/03 02:20:34;;;;;;;4.07;2.38;;;;;;;9.46;90.12;102096.13;1043538;28;20402;-54
2023/06/03 02:21:06;;;;;;;4.40;2.83;;;;;;;9.44;90.61;102093.66;1043663;28;20851;-54
2023/06/03 02:21:39;;;;;;;10.75;3.80;;;;;;;9.46;90.32;102091.66;1039801;28;20306;-54
2023/06/03 02:22:12;;;;;;;6.18;2.47;;;;;;;9.45;90.45;102095.31;1040577;28;20296;-55
2023/06/03 02:22:45;;;;;;;3.50;2.72;;;;;;;9.43;90.60;102094.66;1040702;28;20394;-54
2023/06/03 02:23:17;;;;;;;4.07;2.38;;;;;;;9.45;90.06;102090.00;1043561;28;20354;-54
2023/06/03 02:23:49;;;;;;;7.43;2.55;;;;;;;9.47;89.77;102095.97;1043332;28;20657;-54
2023/06/03 02:24:22;;;;;;;6.70;2.75;;;;;;;9.46;90.59;102091.66;1040970;28;20314;-54
2023/06/03 02:24:57;;;;;;;3.92;2.10;;;;;;;9.46;90.36;102096.13;1046165;28;20299;-54
2023/06/03 02:25:29;;;;;;;3.88;2.97;;;;;;;9.41;89.57;102087.88;1044386;28;20291;-54
2023/06/03 02:26:01;;;;;;;4.30;2.42;;;;;;;9.44;90.01;102093.66;1043752;28;20313;-53
2023/06/03 02:26:34;;;;;;;2.53;2.33;;;;;;;9.44;90.14;102104.28;1039709;28;20303;-55
2023/06/03 02:27:06;;;;;;;3.33;2.08;;;;;;;9.42;90.46;102100.16;1043411;28;20418;-54
2023/06/03 02:27:38;;;;;;;2.95;2.30;;;;;;;9.37;90.84;102103.34;1038418;28;20319;-54
2023/06/03 02:28:16;;;;;;;7.70;3.40;;;;;;;9.33;90.42;102096.75;1035802;28;20338;-50
2023/06/03 02:28:48;;;;;;;4.10;2.47;;;;;;;9.36;91.11;102096.38;1037777;28;20308;-49
2023/06/03 02:29:22;;;;;;;9.20;2.72;;;;;;;9.29;91.03;102098.91;1041379;28;20387;-54
2023/06/03 02:29:53;;;;;;;4.25;2.78;;;;;;;9.36;91.28;102098.22;1043824;28;20294;-53
2023/06/03 02:30:25;;;;;;;6.00;3.08;;;;;;;9.28;91.41;102093.75;1043615;28;20323;-55
2023/06/03 02:30:57;;;;;;;7.72;2.35;;;;;;;9.22;90.54;102095.31;1039671;28;20330;-54
2023/06/03 02:31:29;;;;;;;3.08;1.90;;;;;;;9.27;91.09;102098.25;1035885;28;20312;-54
2023/06/03 02:32:01;;;;;;;5.20;2.85;;;;;;;9.23;91.23;102096.13;1037027;28;20300;-54
2023/06/03 02:32:42;;;;;;;4.50;1.95;;;;;;;9.14;90.98;102094.53;1033615;28;20380;-49
2023/06/03 02:33:14;;;;;;;2.47;1.80;;;;;;;9.07;91.11;102096.25;1035186;28;20125;-46
2023/06/03 02:33:45;;;;;;;6.25;2.50;;;;;;;8.96;91.85;102098.28;1037220;28;20300;-47
2023/06/03 02:34:18;;;;;;;5.55;2.13;;;;;;;8.97;91.84;102099.94;1041168;28;20801;-46
2023/06/03 02:34:54;;;;;;;2.90;2.20;;;;;;;9.01;92.40;102099.59;1044327;28;22215;-54
2023/06/03 02:35:28;;;;;;;4.53;2.30;;;;;;;9.06;92.30;102094.59;1047342;28;20318;-50
2023/06/03 02:36:00;;;;;;;6.85;2.13;;;;;;;8.83;91.59;102100.69;1044346;28;20291;-53
2023/06/03 02:36:31;;;;;;;4.20;2.13;;;;;;;8.83;92.16;102099.88;1043678;28;20338;-53